Terminal Aerodrome Forecast
Issued by NWS

Home | Current Version | Previous Version | Text Only | Print | Product List | Glossary On
Versions: 1 2 3 4 5 6 7 8 9 10 11 12 13 14 15
655
FTUS43 KMPX 291137
TAFRWF
TAF
KRWF 291137Z 2912/3012 18010KT P6SM BKN250
     FM292300 VRB03KT P6SM SCT040 BKN090
      TEMPO 2923/3002 4SM -TSRA BKN040CB OVC080
     FM300600 30004KT P6SM SCT090=

USA.gov is the U.S. government's official web portal to all federal, state and local government web resources and services.